»·PEaware :: N5242D KIFP-KLAS

N5242D :: KIFP-KLAS

FLIGHT INFORMATION

Flight Status: Arrived
Operator: Privately registered:
United States
More flights under this callsign
Pilot: Julio S. (28535)
Aircraft: CESSNA 172 SKYHAWK
(C172)
More flights by this aircraft type
Origin: KIFP Laughlin/Bullhead Intl
United States
Destination: KLAS McCarran Intl
United States
More flights between these airports :: More routes between these airports
Route: +LYNSY V514 BLD
File this flight plan on PilotEdge
Remarks: NO SIDS, NO STARS
Altitude:
(Current/Filed)
10,000ft
Speed:
(Current/Filed)
110kts
Departed: 17-May-20 11:22 AM
Arrived: 17-May-20 12:44 PM
Distance/Time
Traveled:
63nm/1:22
Distance/Time
To Go:
Arrived

Flight Plot

Page will automatically refresh every two minutes.


Map Options




Map Legend


Flown Route
Filed Route
Departure Airport
Arrival Airport
Navaid (VOR, NDB)
Fix

Horizontal Profiles

Position Reports

Time Latitude Longitude Heading Altitude Ground
Speed
17-May-20 10:59 35.160061 -114.556061 176 705ft 0kts
17-May-20 11:00 35.160061 -114.556061 176 705ft 0kts
17-May-20 11:01 35.160061 -114.556061 176 705ft 0kts
17-May-20 11:02 35.160061 -114.556061 176 705ft 0kts
17-May-20 11:03 35.160061 -114.556061 176 705ft 0kts
17-May-20 11:04 35.160061 -114.556061 176 705ft 0kts
17-May-20 11:05 35.160061 -114.556061 176 705ft 0kts
17-May-20 11:06 35.160061 -114.556061 176 705ft 0kts
17-May-20 11:07 35.160061 -114.556061 176 705ft 0kts
17-May-20 11:08 35.160061 -114.556061 176 705ft 0kts
17-May-20 11:09 35.160061 -114.556061 176 705ft 0kts
17-May-20 11:10 35.160061 -114.556061 176 705ft 0kts
17-May-20 11:11 35.160061 -114.556061 176 705ft 0kts
17-May-20 11:12 35.160061 -114.556061 176 705ft 0kts
17-May-20 11:13 35.159854 -114.556106 203 705ft 5kts
17-May-20 11:14 35.161700 -114.558492 352 705ft 22kts
17-May-20 11:15 35.166240 -114.559200 301 705ft 0kts
17-May-20 11:16 35.166240 -114.559200 301 705ft 0kts
17-May-20 11:17 35.166240 -114.559200 301 705ft 0kts
17-May-20 11:18 35.166240 -114.559200 301 705ft 0kts
17-May-20 11:19 35.166240 -114.559200 301 705ft 0kts
17-May-20 11:20 35.166240 -114.559200 301 705ft 0kts
17-May-20 11:21 35.153479 -114.559130 178 1018ft 80kts
17-May-20 11:22 35.133067 -114.563530 187 2150ft 61kts
17-May-20 11:23 35.116357 -114.565719 187 3058ft 60kts
17-May-20 11:24 35.100403 -114.566571 175 3914ft 57kts
17-May-20 11:25 35.084499 -114.564143 175 4671ft 60kts
17-May-20 11:26 35.070032 -114.558298 111 5472ft 70kts
17-May-20 11:27 35.094005 -114.545853 335 6066ft 108kts
17-May-20 11:28 35.124235 -114.558361 336 6674ft 118kts
17-May-20 11:29 35.157042 -114.570481 336 7275ft 122kts
17-May-20 11:37 35.160055 -114.556061 176 705ft 0kts
17-May-20 11:38 35.160055 -114.556061 176 705ft 0kts
17-May-20 11:39 35.160055 -114.556061 176 705ft 0kts
17-May-20 11:40 35.160055 -114.556061 176 705ft 0kts
17-May-20 11:41 35.160055 -114.556061 176 705ft 0kts
17-May-20 11:42 35.160055 -114.556061 176 705ft 0kts
17-May-20 11:43 35.160055 -114.556061 176 705ft 0kts
17-May-20 11:44 35.160055 -114.556061 176 705ft 0kts
17-May-20 11:45 35.159539 -114.557218 268 705ft 13kts
17-May-20 11:46 35.162270 -114.558568 353 705ft 22kts
17-May-20 11:47 35.166198 -114.559118 285 705ft 0kts
17-May-20 11:48 35.166198 -114.559118 285 705ft 0kts
17-May-20 11:49 35.166198 -114.559118 285 705ft 0kts
17-May-20 11:50 35.166227 -114.559413 258 705ft 8kts
17-May-20 11:51 35.149858 -114.558586 173 1065ft 91kts
17-May-20 11:52 35.128487 -114.556087 182 2230ft 63kts
17-May-20 11:54 35.108937 -114.552493 177 3140ft 69kts
17-May-20 11:55 35.091921 -114.547450 173 4074ft 60kts
17-May-20 11:56 35.076365 -114.542099 176 4883ft 56kts
17-May-20 11:57 35.060631 -114.538266 171 5636ft 57kts
17-May-20 11:58 35.045435 -114.531922 174 6369ft 54kts
17-May-20 11:59 35.030467 -114.530878 180 6917ft 64kts
17-May-20 12:00 35.011113 -114.526418 171 7123ft 74kts
17-May-20 12:01 34.989471 -114.521202 172 7030ft 86kts
17-May-20 12:02 34.968462 -114.516471 173 7395ft 49kts
17-May-20 12:03 34.956748 -114.513236 168 7945ft 36kts
17-May-20 12:04 34.966042 -114.506494 306 8254ft 76kts
17-May-20 12:05 34.986703 -114.521199 331 8553ft 100kts
17-May-20 12:06 35.018150 -114.533900 336 8935ft 130kts
17-May-20 12:07 35.050906 -114.545471 338 9557ft 118kts
17-May-20 12:08 35.084445 -114.557072 339 9879ft 132kts
17-May-20 12:09 35.121604 -114.569758 339 9985ft 137kts
17-May-20 12:09 35.152039 -114.580165 339 9992ft 134kts
17-May-20 12:11 35.194315 -114.594687 339 9992ft 132kts
17-May-20 12:12 35.229981 -114.606954 339 9993ft 132kts
17-May-20 12:12 35.259772 -114.617207 339 9993ft 132kts
17-May-20 12:13 35.295629 -114.629556 339 9994ft 132kts
17-May-20 12:15 35.337582 -114.644020 339 9994ft 132kts
17-May-20 12:15 35.367596 -114.654376 339 9994ft 132kts
17-May-20 12:16 35.403854 -114.666910 339 9995ft 135kts
17-May-20 12:17 35.440828 -114.679691 339 9995ft 137kts
17-May-20 12:18 35.478188 -114.692738 339 9995ft 138kts
17-May-20 12:19 35.515784 -114.705816 339 9995ft 138kts
17-May-20 12:20 35.552862 -114.718667 339 10000ft 135kts
17-May-20 12:21 35.589519 -114.731398 338 10008ft 135kts
17-May-20 12:22 35.626092 -114.744103 338 10015ft 135kts
17-May-20 12:23 35.662696 -114.756707 339 10021ft 136kts
17-May-20 12:24 35.699685 -114.768553 339 10006ft 138kts
17-May-20 12:25 35.737796 -114.780731 340 9813ft 135kts
17-May-20 12:26 35.773131 -114.792035 338 9618ft 127kts
17-May-20 12:27 35.810272 -114.803956 340 9453ft 143kts
17-May-20 12:28 35.851354 -114.817103 340 9072ft 160kts
17-May-20 12:29 35.893508 -114.830533 340 8563ft 139kts
17-May-20 12:30 35.929772 -114.842192 340 7884ft 133kts
17-May-20 12:31 35.966988 -114.854166 341 7082ft 143kts
17-May-20 12:32 36.005073 -114.867451 0 6182ft 144kts
17-May-20 12:33 36.045136 -114.867455 1 5301ft 140kts
17-May-20 12:34 36.068943 -114.886119 303 5094ft 124kts
17-May-20 12:35 36.088073 -114.920257 290 4891ft 110kts
17-May-20 12:36 36.080628 -114.946334 230 5055ft 89kts
17-May-20 12:37 36.078352 -114.982365 255 4735ft 111kts
17-May-20 12:38 36.076163 -115.021765 260 3781ft 117kts
17-May-20 12:39 36.075077 -115.054101 242 3302ft 85kts
17-May-20 12:40 36.074340 -115.083993 248 2779ft 73kts
17-May-20 12:41 36.073872 -115.110248 260 2387ft 86kts
17-May-20 12:42 36.073726 -115.136088 259 2084ft 58kts
17-May-20 12:43 36.074207 -115.139699 72 2080ft 0kts
17-May-20 12:44 36.074449 -115.139170 57 2078ft 11kts
17-May-20 12:45 36.074844 -115.138348 60 2074ft 0kts
17-May-20 12:46 36.075094 -115.138375 240 2074ft 9kts
17-May-20 12:47 36.074986 -115.139792 273 2080ft 0kts
17-May-20 12:48 36.075027 -115.142006 267 2085ft 16kts
17-May-20 12:49 36.075003 -115.148722 268 2108ft 20kts
17-May-20 12:50 36.074997 -115.156845 272 2140ft 25kts
17-May-20 12:51 36.075016 -115.163179 267 2162ft 21kts
17-May-20 12:52 36.074257 -115.165232 201 2171ft 0kts
17-May-20 12:53 36.074825 -115.168598 304 2180ft 0kts
17-May-20 12:54 36.074908 -115.168821 295 2180ft 0kts
17-May-20 12:55 36.074908 -115.168821 295 2180ft 0kts
17-May-20 12:56 36.078069 -115.171035 7 2178ft 22kts

Navigation Log

Ident Type
Flight plan parsing failed, navigation log unavailable